Antonello — IKVS — position and weather

sailwx.info

Track history (hours):
 
Tides and Currents Weather Stations Pressure Air Temp Water Temp Dewpoint Dewpoint Depression Visibility Wind Speed Wind Dir Waves Ship Positions

Antonello

Last reported at 2016-Jul-23 16:33 UTC. Time now 2016-Jul-24 03:02 UTC.
Position N 38°35' E 014°50'.

Length 70 m; draft 4.2 m.

Type: Ship. MMSI: 247422000.

Date/timePositionNaut miles runAvg speedWind from/ knotsBaromVisibWave heightAir tempDewpointWater temp
2016-Jul-23 16:33N 38°35' E 014°50'0 0.0
2016-Jul-23 15:33N 38°35' E 014°50'0 0.0
2016-Jul-23 14:22N 38°35' E 014°50'0 0.0
2016-Jul-23 13:33N 38°35' E 014°50'1 0.9
2016-Jul-23 12:33N 38°35' E 014°51'9 8.6
2016-Jul-23 11:33N 38°34' E 015°02'9 8.8
2016-Jul-23 10:30N 38°32' E 015°14'9 8.7
2016-Jul-23 09:28N 38°31' E 015°25'9 8.4
2016-Jul-23 08:26N 38°29' E 015°36'7 8.4
2016-Jul-23 07:33N 38°27' E 015°45'7 7.1
2016-Jul-23 06:33N 38°27' E 015°54'0 0.0
2016-Jul-23 04:31N 38°27' E 015°54'0 0.0
2016-Jul-23 03:19N 38°27' E 015°54'0 0.0
2016-Jul-23 02:30N 38°27' E 015°54'0 0.0
2016-Jul-23 01:30N 38°27' E 015°54'3 1.6
2016-Jul-22 23:33N 38°27' E 015°50'9 9.0
2016-Jul-22 22:33N 38°29' E 015°39'9 9.1
2016-Jul-22 21:33N 38°30' E 015°27'9 9.2
2016-Jul-22 20:32N 38°31' E 015°15'9 9.2
2016-Jul-22 19:33N 38°32' E 015°04'20 9.0
2016-Jul-22 17:16N 38°33' E 014°38'2 0.4
2016-Jul-22 11:30N 38°34' E 014°35'0 0.0
2016-Jul-22 08:32N 38°34' E 014°35'1 0.6
2016-Jul-22 07:04N 38°33' E 014°34'4 0.9
2016-Jul-22 02:33N 38°31' E 014°30'8 8.0
2016-Jul-22 01:34N 38°28' E 014°21'9 8.1
2016-Jul-22 00:30N 38°25' E 014°11'7 7.9
2016-Jul-21 23:33N 38°21' E 014°02'8 7.9
2016-Jul-21 22:34N 38°18' E 013°53'8 7.7
2016-Jul-21 21:34N 38°15' E 013°44'8 7.7
2016-Jul-21 20:34N 38°12' E 013°35'8 7.9
2016-Jul-21 19:34N 38°08' E 013°26'3 3.1
2016-Jul-21 18:33N 38°08' E 013°22'0 0.0
2016-Jul-21 17:32N 38°08' E 013°22'0 0.0
2016-Jul-21 16:32N 38°08' E 013°22'0 0.0
2016-Jul-21 15:31N 38°08' E 013°22'0 0.0
2016-Jul-21 14:33N 38°08' E 013°22'0 0.0
2016-Jul-21 13:33N 38°08' E 013°22'0 0.0
2016-Jul-21 12:32N 38°08' E 013°22'0 0.0
2016-Jul-21 11:32N 38°08' E 013°22'0 0.0
2016-Jul-21 10:31N 38°08' E 013°22'2 1.8
2016-Jul-21 09:33N 38°08' E 013°24'9 9.0
2016-Jul-21 08:33N 38°13' E 013°34'9 9.3
2016-Jul-21 07:33N 38°16' E 013°45'9 9.2
2016-Jul-21 06:33N 38°20' E 013°56'18 9.0
2016-Jul-21 04:30N 38°27' E 014°18'16 0.8
2016-Jul-20 09:32N 38°22' E 013°59'8 8.6
2016-Jul-20 08:33N 38°19' E 013°49'9 8.5
2016-Jul-20 07:33N 38°14' E 013°40'8 8.6
2016-Jul-20 06:34N 38°10' E 013°30'7 6.9
2016-Jul-20 05:33N 38°08' E 013°22'0 0.0
2016-Jul-20 04:31N 38°08' E 013°22'0 0.0
2016-Jul-20 03:31N 38°08' E 013°22'0 0.0
2016-Jul-20 02:33N 38°08' E 013°22'0 0.0
2016-Jul-20 01:32N 38°08' E 013°22'0 0.0
2016-Jul-20 00:32N 38°08' E 013°22'0 0.0
2016-Jul-19 23:31N 38°08' E 013°22'0 0.0
2016-Jul-19 22:31N 38°08' E 013°22'0 0.0
2016-Jul-19 21:33N 38°08' E 013°22'0 0.0
2016-Jul-19 20:32N 38°08' E 013°22'0 0.0
2016-Jul-19 19:32N 38°08' E 013°22'0 0.0
2016-Jul-19 18:31N 38°08' E 013°22'0 0.0
2016-Jul-19 17:31N 38°08' E 013°22'0 0.0
2016-Jul-19 16:33N 38°08' E 013°22'0 0.0
2016-Jul-19 15:34N 38°08' E 013°22'5 4.8
2016-Jul-19 14:34N 38°11' E 013°27'9 9.0
2016-Jul-19 13:33N 38°13' E 013°38'9 8.9
2016-Jul-19 12:34N 38°16' E 013°49'28 9.0
2016-Jul-19 09:26N 38°25' E 014°23'8 8.7
2016-Jul-19 08:33N 38°27' E 014°32'9 8.7
2016-Jul-19 07:32N 38°29' E 014°43'9 8.4
2016-Jul-19 06:29N 38°33' E 014°54'3 0.2
2016-Jul-18 14:33N 38°36' E 014°53'8 8.1
2016-Jul-18 13:33N 38°34' E 015°03'9 8.6
2016-Jul-18 12:33N 38°33' E 015°14'8 8.4
2016-Jul-18 11:33N 38°32' E 015°25'8 8.3
2016-Jul-18 10:34N 38°30' E 015°35'9 8.7
2016-Jul-18 09:33N 38°28' E 015°46'5 0.7
2016-Jul-18 01:33N 38°27' E 015°53'7 6.8
2016-Jul-18 00:33N 38°29' E 015°44'1 1.1
2016-Jul-17 23:33N 38°28' E 015°43'3 3.2
2016-Jul-17 22:33N 38°29' E 015°39'9 9.2
2016-Jul-17 21:33N 38°30' E 015°27'9 9.1
2016-Jul-17 20:33N 38°32' E 015°16'10 9.2
2016-Jul-17 19:31N 38°34' E 015°04'5 0.2
2016-Jul-16 14:13N 38°32' E 014°58'3 0.9
2016-Jul-16 10:32N 38°29' E 014°59'0 0.0
2016-Jul-16 08:24N 38°29' E 014°59'0 0.0
2016-Jul-16 07:24N 38°29' E 014°59'0 0.0
2016-Jul-16 06:32N 38°29' E 014°59'0 0.0
2016-Jul-16 04:20N 38°29' E 014°59'0 0.0
2016-Jul-16 03:29N 38°29' E 014°59'0 0.0
2016-Jul-16 02:19N 38°29' E 014°59'0 0.0
2016-Jul-15 23:20N 38°29' E 014°59'0 0.0
2016-Jul-15 22:32N 38°29' E 014°59'0 0.0
2016-Jul-15 21:13N 38°29' E 014°59'0 0.0
2016-Jul-15 16:19N 38°29' E 014°59'0 0.0
2016-Jul-15 15:12N 38°29' E 014°59'0 0.0
2016-Jul-15 14:21N 38°29' E 014°59'0 0.0
2016-Jul-15 13:26N 38°29' E 014°59'0 0.0
2016-Jul-15 12:32N 38°29' E 014°59'0 0.0
2016-Jul-15 11:22N 38°29' E 014°59'0 0.0
2016-Jul-15 10:21N 38°29' E 014°59'0 0.0
2016-Jul-15 09:27N 38°29' E 014°59'2 2.1
2016-Jul-15 08:33N 38°30' E 014°59'6 5.8
2016-Jul-15 07:27N 38°35' E 014°53'8 8.1
2016-Jul-15 06:30N 38°27' E 014°54'62 7.7
2016-Jul-14 22:32N 38°12' E 013°38'8 8.3
2016-Jul-14 21:33N 38°09' E 013°28'5 3.6
2016-Jul-14 20:07N 38°08' E 013°22'0 0.0
2016-Jul-14 19:33N 38°08' E 013°22'0 0.1
2016-Jul-14 18:27N 38°08' E 013°22'0 0.0
2016-Jul-14 17:32N 38°08' E 013°22'0 0.0
2016-Jul-14 16:08N 38°08' E 013°22'0 0.0
2016-Jul-14 15:31N 38°08' E 013°22'0 0.0
2016-Jul-14 14:18N 38°08' E 013°22'0 0.0
2016-Jul-14 12:29N 38°08' E 013°22'0 0.0
2016-Jul-14 11:08N 38°08' E 013°22'0 0.0
2016-Jul-14 10:28N 38°08' E 013°22'1 0.7
2016-Jul-14 09:33N 38°07' E 013°23'9 8.4
2016-Jul-14 08:32N 38°12' E 013°32'66 8.9
2016-Jul-14 01:12N 38°36' E 014°50'5 8.2
2016-Jul-14 00:33N 38°38' E 014°56'7 7.1
2016-Jul-13 23:33N 38°38' E 015°05'0 0.2
2016-Jul-13 22:33N 38°38' E 015°05'0 0.0
2016-Jul-13 21:33N 38°38' E 015°05'0 0.0
2016-Jul-13 20:33N 38°38' E 015°05'0 0.0
2016-Jul-13 19:33N 38°38' E 015°05'0 0.0
2016-Jul-13 18:29N 38°38' E 015°05'0 0.0
2016-Jul-13 17:33N 38°38' E 015°05'  
Track history (hours):
 
Tides and Currents Weather Stations Pressure Air Temp Water Temp Dewpoint Dewpoint Depression Visibility Wind Speed Wind Dir Waves Ship Positions

Antonello

Last reported at 2016-Jul-23 16:33 UTC. Time now 2016-Jul-24 03:02 UTC.
Position N 38°35' E 014°50'.

Length 70 m; draft 4.2 m.

Type: Ship. MMSI: 247422000.

Date/timePositionNaut miles runAvg speedWind from/ knotsBaromVisibWave heightAir tempDewpointWater temp
2016-Jul-23 16:33N 38°35' E 014°50'0 0.0
2016-Jul-23 15:33N 38°35' E 014°50'0 0.0
2016-Jul-23 14:22N 38°35' E 014°50'0 0.0
2016-Jul-23 13:33N 38°35' E 014°50'1 0.9
2016-Jul-23 12:33N 38°35' E 014°51'9 8.6
2016-Jul-23 11:33N 38°34' E 015°02'9 8.8
2016-Jul-23 10:30N 38°32' E 015°14'9 8.7
2016-Jul-23 09:28N 38°31' E 015°25'9 8.4
2016-Jul-23 08:26N 38°29' E 015°36'7 8.4
2016-Jul-23 07:33N 38°27' E 015°45'7 7.1
2016-Jul-23 06:33N 38°27' E 015°54'0 0.0
2016-Jul-23 04:31N 38°27' E 015°54'0 0.0
2016-Jul-23 03:19N 38°27' E 015°54'0 0.0
2016-Jul-23 02:30N 38°27' E 015°54'0 0.0
2016-Jul-23 01:30N 38°27' E 015°54'3 1.6
2016-Jul-22 23:33N 38°27' E 015°50'9 9.0
2016-Jul-22 22:33N 38°29' E 015°39'9 9.1
2016-Jul-22 21:33N 38°30' E 015°27'9 9.2
2016-Jul-22 20:32N 38°31' E 015°15'9 9.2
2016-Jul-22 19:33N 38°32' E 015°04'20 9.0
2016-Jul-22 17:16N 38°33' E 014°38'2 0.4
2016-Jul-22 11:30N 38°34' E 014°35'0 0.0
2016-Jul-22 08:32N 38°34' E 014°35'1 0.6
2016-Jul-22 07:04N 38°33' E 014°34'4 0.9
2016-Jul-22 02:33N 38°31' E 014°30'8 8.0
2016-Jul-22 01:34N 38°28' E 014°21'9 8.1
2016-Jul-22 00:30N 38°25' E 014°11'7 7.9
2016-Jul-21 23:33N 38°21' E 014°02'8 7.9
2016-Jul-21 22:34N 38°18' E 013°53'8 7.7
2016-Jul-21 21:34N 38°15' E 013°44'8 7.7
2016-Jul-21 20:34N 38°12' E 013°35'8 7.9
2016-Jul-21 19:34N 38°08' E 013°26'3 3.1
2016-Jul-21 18:33N 38°08' E 013°22'0 0.0
2016-Jul-21 17:32N 38°08' E 013°22'0 0.0
2016-Jul-21 16:32N 38°08' E 013°22'0 0.0
2016-Jul-21 15:31N 38°08' E 013°22'0 0.0
2016-Jul-21 14:33N 38°08' E 013°22'0 0.0
2016-Jul-21 13:33N 38°08' E 013°22'0 0.0
2016-Jul-21 12:32N 38°08' E 013°22'0 0.0
2016-Jul-21 11:32N 38°08' E 013°22'0 0.0
2016-Jul-21 10:31N 38°08' E 013°22'2 1.8
2016-Jul-21 09:33N 38°08' E 013°24'9 9.0
2016-Jul-21 08:33N 38°13' E 013°34'9 9.3
2016-Jul-21 07:33N 38°16' E 013°45'9 9.2
2016-Jul-21 06:33N 38°20' E 013°56'18 9.0
2016-Jul-21 04:30N 38°27' E 014°18'16 0.8
2016-Jul-20 09:32N 38°22' E 013°59'8 8.6
2016-Jul-20 08:33N 38°19' E 013°49'9 8.5
2016-Jul-20 07:33N 38°14' E 013°40'8 8.6
2016-Jul-20 06:34N 38°10' E 013°30'7 6.9
2016-Jul-20 05:33N 38°08' E 013°22'0 0.0
2016-Jul-20 04:31N 38°08' E 013°22'0 0.0
2016-Jul-20 03:31N 38°08' E 013°22'0 0.0
2016-Jul-20 02:33N 38°08' E 013°22'0 0.0
2016-Jul-20 01:32N 38°08' E 013°22'0 0.0
2016-Jul-20 00:32N 38°08' E 013°22'0 0.0
2016-Jul-19 23:31N 38°08' E 013°22'0 0.0
2016-Jul-19 22:31N 38°08' E 013°22'0 0.0
2016-Jul-19 21:33N 38°08' E 013°22'0 0.0
2016-Jul-19 20:32N 38°08' E 013°22'0 0.0
2016-Jul-19 19:32N 38°08' E 013°22'0 0.0
2016-Jul-19 18:31N 38°08' E 013°22'0 0.0
2016-Jul-19 17:31N 38°08' E 013°22'0 0.0
2016-Jul-19 16:33N 38°08' E 013°22'0 0.0
2016-Jul-19 15:34N 38°08' E 013°22'5 4.8
2016-Jul-19 14:34N 38°11' E 013°27'9 9.0
2016-Jul-19 13:33N 38°13' E 013°38'9 8.9
2016-Jul-19 12:34N 38°16' E 013°49'28 9.0
2016-Jul-19 09:26N 38°25' E 014°23'8 8.7
2016-Jul-19 08:33N 38°27' E 014°32'9 8.7
2016-Jul-19 07:32N 38°29' E 014°43'9 8.4
2016-Jul-19 06:29N 38°33' E 014°54'3 0.2
2016-Jul-18 14:33N 38°36' E 014°53'8 8.1
2016-Jul-18 13:33N 38°34' E 015°03'9 8.6
2016-Jul-18 12:33N 38°33' E 015°14'8 8.4
2016-Jul-18 11:33N 38°32' E 015°25'8 8.3
2016-Jul-18 10:34N 38°30' E 015°35'9 8.7
2016-Jul-18 09:33N 38°28' E 015°46'5 0.7
2016-Jul-18 01:33N 38°27' E 015°53'7 6.8
2016-Jul-18 00:33N 38°29' E 015°44'1 1.1
2016-Jul-17 23:33N 38°28' E 015°43'3 3.2
2016-Jul-17 22:33N 38°29' E 015°39'9 9.2
2016-Jul-17 21:33N 38°30' E 015°27'9 9.1
2016-Jul-17 20:33N 38°32' E 015°16'10 9.2
2016-Jul-17 19:31N 38°34' E 015°04'5 0.2
2016-Jul-16 14:13N 38°32' E 014°58'3 0.9
2016-Jul-16 10:32N 38°29' E 014°59'0 0.0
2016-Jul-16 08:24N 38°29' E 014°59'0 0.0
2016-Jul-16 07:24N 38°29' E 014°59'0 0.0
2016-Jul-16 06:32N 38°29' E 014°59'0 0.0
2016-Jul-16 04:20N 38°29' E 014°59'0 0.0
2016-Jul-16 03:29N 38°29' E 014°59'0 0.0
2016-Jul-16 02:19N 38°29' E 014°59'0 0.0
2016-Jul-15 23:20N 38°29' E 014°59'0 0.0
2016-Jul-15 22:32N 38°29' E 014°59'0 0.0
2016-Jul-15 21:13N 38°29' E 014°59'0 0.0
2016-Jul-15 16:19N 38°29' E 014°59'0 0.0
2016-Jul-15 15:12N 38°29' E 014°59'0 0.0
2016-Jul-15 14:21N 38°29' E 014°59'0 0.0
2016-Jul-15 13:26N 38°29' E 014°59'0 0.0
2016-Jul-15 12:32N 38°29' E 014°59'0 0.0
2016-Jul-15 11:22N 38°29' E 014°59'0 0.0
2016-Jul-15 10:21N 38°29' E 014°59'0 0.0
2016-Jul-15 09:27N 38°29' E 014°59'2 2.1
2016-Jul-15 08:33N 38°30' E 014°59'6 5.8
2016-Jul-15 07:27N 38°35' E 014°53'8 8.1
2016-Jul-15 06:30N 38°27' E 014°54'62 7.7
2016-Jul-14 22:32N 38°12' E 013°38'8 8.3
2016-Jul-14 21:33N 38°09' E 013°28'5 3.6
2016-Jul-14 20:07N 38°08' E 013°22'0 0.0
2016-Jul-14 19:33N 38°08' E 013°22'0 0.1
2016-Jul-14 18:27N 38°08' E 013°22'0 0.0
2016-Jul-14 17:32N 38°08' E 013°22'0 0.0
2016-Jul-14 16:08N 38°08' E 013°22'0 0.0
2016-Jul-14 15:31N 38°08' E 013°22'0 0.0
2016-Jul-14 14:18N 38°08' E 013°22'0 0.0
2016-Jul-14 12:29N 38°08' E 013°22'0 0.0
2016-Jul-14 11:08N 38°08' E 013°22'0 0.0
2016-Jul-14 10:28N 38°08' E 013°22'1 0.7
2016-Jul-14 09:33N 38°07' E 013°23'9 8.4
2016-Jul-14 08:32N 38°12' E 013°32'66 8.9
2016-Jul-14 01:12N 38°36' E 014°50'5 8.2
2016-Jul-14 00:33N 38°38' E 014°56'7 7.1
2016-Jul-13 23:33N 38°38' E 015°05'0 0.2
2016-Jul-13 22:33N 38°38' E 015°05'0 0.0
2016-Jul-13 21:33N 38°38' E 015°05'0 0.0
2016-Jul-13 20:33N 38°38' E 015°05'0 0.0
2016-Jul-13 19:33N 38°38' E 015°05'0 0.0
2016-Jul-13 18:29N 38°38' E 015°05'0 0.0
2016-Jul-13 17:33N 38°38' E 015°05'  

Dump ship's entire track history